^^
Dati Storici Stazione
Giornaliero Riassunto Giugno 24, 2021 Unita' di misura:  Inglesi    Metriche   Entrambe
Giornaliero Settimanale Mensile Annuale
  Max: Min: Media:
Temperatura: 104.6 °F 79.8 °F 91.9 °F
Punto di Rugiada: 60.4 °F 48.7 °F 54.5 °F
Umidita': 46% 15.8% 30%
Velocita' Vento: 10.8mph 0mph 2.7mph
Raffica di Vento: 20mph - -
Direzione Vento- - SSW
Pressione: 30.07 in 29.97 in -
Precipitazioni: 0.00 in    
 
 
Tabelle Dati per il Giugno 24, 2021
Ora Temperatura Punto Rugiada Pressione Dir.Vento Vel.Vento Raff.Vento Umidita' Rainfall Rate (Orario) Solare Condizioni
00:04 85 °F 54.2 °F 30.01 in SSW 2.6 mph 5 mph 35% 0.00 in W/m2
00:09 84.6 °F 53.9 °F 30.01 in SSW 2.1 mph 5 mph 35% 0.00 in W/m2
00:14 84.3 °F 53.7 °F 30.01 in SSW 2.2 mph 5 mph 35% 0.00 in W/m2
00:19 84 °F 54.1 °F 30.01 in South 2.5 mph 6 mph 36% 0.00 in W/m2
00:24 83.6 °F 53.8 °F 30.01 in South 2.5 mph 6 mph 36% 0.00 in W/m2
00:29 83.4 °F 53.6 °F 30.01 in SSW 2.5 mph 7 mph 36% 0.00 in W/m2
00:34 83.3 °F 53.6 °F 30.01 in SSW 3.8 mph 7 mph 36% 0.00 in W/m2
00:39 83.3 °F 52.9 °F 30.01 in South 2.7 mph 7 mph 35.1% 0.00 in W/m2
00:44 83.3 °F 52.6 °F 30.01 in SSW 3.7 mph 7 mph 34.8% 0.00 in W/m2
00:49 83.9 °F 52.5 °F 30.01 in SSW 4.2 mph 7 mph 34% 0.00 in W/m2
00:54 84.5 °F 52.5 °F 30.01 in SSW 5 mph 9.2 mph 33.4% 0.00 in W/m2
00:59 84.8 °F 52.5 °F 30.01 in SSW 4.6 mph 9.2 mph 33% 0.00 in W/m2
01:04 84.9 °F 52.6 °F 30.01 in South 3.1 mph 8 mph 33% 0.00 in W/m2
01:09 84.5 °F 52.9 °F 30.00 in SSW 3.4 mph 7 mph 33.9% 0.00 in W/m2
01:14 84.5 °F 53.1 °F 30.00 in SSW 5.1 mph 10.4 mph 34% 0.00 in W/m2
01:19 84.7 °F 53.3 °F 30.00 in SSW 4.7 mph 10 mph 34% 0.00 in W/m2
01:24 84.8 °F 53.4 °F 30.01 in SSW 4.1 mph 7 mph 34.1% 0.00 in W/m2
01:29 84.8 °F 54.1 °F 30.01 in SSW 4.5 mph 7 mph 35% 0.00 in W/m2
01:34 84.7 °F 54 °F 30.01 in SSW 3 mph 7 mph 35.1% 0.00 in W/m2
01:39 84.4 °F 54.4 °F 30.00 in SSW 2.7 mph 6 mph 36% 0.00 in W/m2
01:44 84.2 °F 54.4 °F 30.00 in SSW 3.3 mph 6 mph 36% 0.00 in W/m2
01:49 84 °F 54.9 °F 30.00 in SSW 2.6 mph 6 mph 37% 0.00 in W/m2
01:54 83.6 °F 54.8 °F 30.00 in SSW 4.2 mph 8.1 mph 37.3% 0.00 in W/m2
01:59 83.5 °F 55.2 °F 30.00 in SSW 3.7 mph 8.1 mph 38% 0.00 in W/m2
02:04 83.5 °F 55.2 °F 30.00 in South 2.3 mph 7 mph 38% 0.00 in W/m2
02:09 83.2 °F 55.2 °F 30.00 in South 2.2 mph 6 mph 38.3% 0.00 in W/m2
02:14 82.9 °F 55.4 °F 30.00 in SSW 2.5 mph 6 mph 39% 0.00 in W/m2
02:19 82.9 °F 55.4 °F 30.00 in SSW 2.9 mph 5 mph 39% 0.00 in W/m2
02:24 82.9 °F 55.4 °F 30.00 in SSW 2.9 mph 5 mph 39% 0.00 in W/m2
02:29 83 °F 55.5 °F 30.00 in South 2.3 mph 5 mph 39% 0.00 in W/m2
02:34 82.7 °F 55.6 °F 30.00 in South 1 mph 5 mph 39.5% 0.00 in W/m2
02:39 82.3 °F 55.8 °F 30.00 in South 1.9 mph 4 mph 40.3% 0.00 in W/m2
02:44 82.3 °F 56.3 °F 30.00 in SSW 0.9 mph 4 mph 41% 0.00 in W/m2
02:49 82.4 °F 56.8 °F 30.00 in WSW 0.7 mph 3 mph 41.6% 0.00 in W/m2
02:54 82.8 °F 57.3 °F 30.00 in WSW 0.2 mph 2.3 mph 41.8% 0.00 in W/m2
02:59 83 °F 57.5 °F 30.00 in WSW 0.3 mph 2.3 mph 42% 0.00 in W/m2
03:04 83.4 °F 57.5 °F 30.00 in SSW 1.9 mph 4 mph 41.4% 0.00 in W/m2
03:09 83.4 °F 57.2 °F 30.00 in SSW 1.4 mph 3.5 mph 41% 0.00 in W/m2
03:14 83.8 °F 57.6 °F 30.00 in SW 0.5 mph 3 mph 41% 0.00 in W/m2
03:19 84.6 °F 57.7 °F 30.00 in WSW 2.4 mph 10.4 mph 40.1% 0.00 in W/m2
03:24 85.1 °F 57.4 °F 30.00 in WSW 2.6 mph 10 mph 39% 0.00 in W/m2
03:29 85.1 °F 57.3 °F 30.00 in WSW 2.7 mph 7 mph 38.8% 0.00 in W/m2
03:34 85 °F 57.3 °F 30.00 in WSW 2.4 mph 7 mph 39% 0.00 in W/m2
03:39 85.1 °F 58 °F 30.00 in SW 2.1 mph 5 mph 40% 0.00 in W/m2
03:44 84.9 °F 58.2 °F 29.99 in SW 0.4 mph 4 mph 40.4% 0.00 in W/m2
03:49 84.5 °F 58.2 °F 29.99 in SW 0.3 mph 2.3 mph 41% 0.00 in W/m2
03:54 84.3 °F 58.2 °F 29.99 in SSW 0.1 mph 2 mph 41.3% 0.00 in W/m2
03:59 84 °F 58.4 °F 29.99 in Calm   1.2 mph 42% 0.00 in W/m2
04:04 83.5 °F 58 °F 29.99 in SSW 0.7 mph 2.3 mph 42% 0.00 in W/m2
04:09 83.1 °F 57.6 °F 29.99 in SSE 0.1 mph 2 mph 42% 0.00 in W/m2
04:14 82.7 °F 57.3 °F 29.98 in SE 0.1 mph 2.3 mph 42% 0.00 in W/m2
04:19 82.2 °F 57.5 °F 29.98 in Calm   1.2 mph 43% 0.00 in W/m2
04:24 81.7 °F 57.1 °F 29.98 in SSE 0.1 mph 2 mph 43.2% 0.00 in W/m2
04:29 81.3 °F 57.3 °F 29.98 in SE 0.2 mph 2 mph 44% 0.00 in W/m2
04:34 81 °F 57.3 °F 29.98 in SE 0.1 mph 1.2 mph 44.5% 0.00 in W/m2
04:39 80.8 °F 57.5 °F 29.98 in Calm   1 mph 45% 0.00 in W/m2
04:44 80.7 °F 57.4 °F 29.98 in SSE 0.3 mph 2.3 mph 45% 0.00 in W/m2
04:49 80.4 °F 57.1 °F 29.98 in SE 0.6 mph 2.3 mph 45% 0.00 in W/m2
04:54 80 °F 57.2 °F 29.98 in SSE 1.3 mph 4 mph 45.7% 0.00 in W/m2
04:59 79.9 °F 57.3 °F 29.98 in South 1.4 mph 4 mph 46% 0.00 in W/m2
05:04 80 °F 57.4 °F 29.98 in SSW 0.7 mph 3 mph 46% 0.00 in W/m2
05:09 80.2 °F 56.9 °F 29.98 in South 0.2 mph 2 mph 45% 0.00 in W/m2
05:14 80.3 °F 57 °F 29.98 in Calm   1 mph 45% 0.00 in W/m2
05:19 80.4 °F 57.1 °F 29.98 in Calm     45% 0.00 in W/m2
05:24 80.2 °F 57 °F 29.98 in SSE 0.8 mph 2 mph 45.1% 0.00 in W/m2
05:29 79.8 °F 57.2 °F 29.98 in SSE 1.1 mph 3.5 mph 46% 0.00 in W/m2
05:34 79.8 °F 57 °F 29.98 in SSW 1.8 mph 5 mph 45.8% 0.00 in W/m2
05:39 80.8 °F 56.5 °F 29.97 in SSE 2.7 mph 5 mph 43.4% 0.00 in W/m2
05:44 82.1 °F 56.4 °F 29.97 in SSW 3.7 mph 8.1 mph 41.5% 0.00 in W/m2
05:49 83.6 °F 56.2 °F 29.98 in WSW 3.7 mph 9.2 mph 39.3% 0.00 in W/m2
05:54 85.4 °F 53.7 °F 29.98 in NNE 3.7 mph 10.4 mph 33.9% 0.00 in W/m2
05:59 87.5 °F 52.6 °F 29.99 in West 2.4 mph 10 mph 30.5% 0.00 in W/m2
06:04 88.6 °F 53.2 °F 29.99 in WSW 2.8 mph 6 mph 30% 0.00 in W/m2
06:09 88.7 °F 52.7 °F 29.99 in NNW 1.8 mph 4 mph 29.3% 0.00 in W/m2
06:14 88.9 °F 52.9 °F 30.00 in West 2.3 mph 4 mph 29.5% 0.00 in W/m2
06:19 88.6 °F 53.2 °F 30.01 in NE 3.4 mph 5 mph 30% 0.00 in W/m2
06:24 88.5 °F 53.3 °F 30.01 in WNW 2.2 mph 5 mph 30.2% 0.00 in W/m2
06:29 88.7 °F 53.5 °F 30.01 in WSW 3.6 mph 9.2 mph 30.2% 0.00 in W/m2
06:34 88.8 °F 54 °F 30.01 in West 0.8 mph 9 mph 30.6% 0.00 in W/m2
06:39 88.5 °F 54.8 °F 30.01 in NNE 0.3 mph 3.5 mph 31.9% 0.00 in W/m2
06:44 88.1 °F 54.5 °F 30.01 in NNE 0.7 mph 3 mph 32% 0.00 in W/m2
06:49 87.7 °F 54.5 °F 30.01 in Calm   2 mph 32.4% 0.00 in W/m2
06:54 87.4 °F 55.1 °F 30.01 in WSW 1.5 mph 5 mph 33.4% 0.00 in W/m2
06:59 87.2 °F 55.4 °F 30.01 in WSW 1.3 mph 5 mph 34% 0.00 in W/m2
07:04 87 °F 56 °F 30.00 in West 0.1 mph 3 mph 35% 0.00 in W/m2
07:09 86.7 °F 56.2 °F 30.00 in West 0.1 mph 1.2 mph 35.6% 0.00 in W/m2
07:14 86.5 °F 56.6 °F 30.00 in Calm   1.2 mph 36.2% 0.00 in W/m2
07:19 86.8 °F 56.9 °F 30.00 in NE 1.1 mph 4 mph 36.3% 0.00 in W/m2
07:24 86.5 °F 57.6 °F 30.00 in ENE 2.1 mph 4 mph 37.7% 0.00 in W/m2
07:29 86.3 °F 57.8 °F 30.00 in ESE 1.4 mph 4 mph 38.2% 0.00 in W/m2
07:34 86.9 °F 58.6 °F 30.00 in SE 0.7 mph 4 mph 38.5% 0.00 in W/m2
07:39 87.6 °F 58.4 °F 30.00 in SSE 0.7 mph 4 mph 37.3% 0.00 in W/m2
07:44 88.5 °F 58.4 °F 30.00 in SSE 0.7 mph 4 mph 36.4% 0.00 in W/m2
07:49 89.1 °F 58.9 °F 30.00 in SSE 2.2 mph 5 mph 36.3% 0.00 in W/m2
07:54 89.3 °F 59.5 °F 30.00 in SSW 1.6 mph 5 mph 37% 0.00 in W/m2
07:59 89.7 °F 59.6 °F 30.01 in SSE 1.8 mph 5 mph 36.6% 0.00 in W/m2
08:04 90.1 °F 59.6 °F 30.01 in South 2 mph 5 mph 36% 0.00 in W/m2
08:09 90.4 °F 59.3 °F 30.01 in SSW 2.4 mph 5 mph 35.5% 0.00 in W/m2
08:14 90.9 °F 59.5 °F 30.01 in South 1.4 mph 5 mph 35% 0.00 in W/m2
08:19 91.8 °F 58.6 °F 30.01 in SSW 1.9 mph 4 mph 33% 0.00 in W/m2
08:24 92.6 °F 58.7 °F 30.01 in SSE 1.2 mph 4 mph 32.4% 0.00 in W/m2
08:29 93.4 °F 58.7 °F 30.01 in SSE 1.4 mph 4 mph 31.4% 0.00 in W/m2
08:34 94.2 °F 58.9 °F 30.01 in South 1.3 mph 4 mph 31% 0.00 in W/m2
08:39 94.7 °F 59.2 °F 30.02 in South 1.6 mph 4 mph 30.8% 0.00 in W/m2
08:44 95.1 °F 59.1 °F 30.02 in SSW 1 mph 4 mph 30.3% 0.00 in W/m2
08:49 96.1 °F 60 °F 30.02 in South 0.2 mph 3.5 mph 30.4% 0.00 in W/m2
08:54 97.4 °F 59.9 °F 30.02 in SSE 0.8 mph 3.5 mph 29.1% 0.00 in W/m2
08:59 98.3 °F 60.4 °F 30.02 in East 0.5 mph 3.5 mph 28.8% 0.00 in W/m2
09:04 98.9 °F 58.6 °F 30.02 in WNW 1.5 mph 3.5 mph 26.6% 0.00 in W/m2
09:09 99.6 °F 57.2 °F 30.02 in West 1.2 mph 6 mph 24.7% 0.00 in W/m2
09:14 99.9 °F 54 °F 30.03 in West 3.1 mph 7 mph 21.8% 0.00 in W/m2
09:19 100.1 °F 50.9 °F 30.03 in West 4.1 mph 10.4 mph 19.4% 0.00 in W/m2
09:24 100.3 °F 49.4 °F 30.03 in West 5.7 mph 11.5 mph 18.2% 0.00 in W/m2
09:29 100.2 °F 49.6 °F 30.03 in West 5.9 mph 12 mph 18.4% 0.00 in W/m2
09:34 100.4 °F 49.8 °F 30.03 in West 6.3 mph 12 mph 18.4% 0.00 in W/m2
09:39 100.5 °F 49.5 °F 30.04 in West 4.5 mph 12 mph 18.2% 0.00 in W/m2
09:44 100.5 °F 50.5 °F 30.04 in West 5.3 mph 10.4 mph 18.8% 0.00 in W/m2
09:49 100.7 °F 50.9 °F 30.04 in West 6.6 mph 12 mph 19% 0.00 in W/m2
09:54 100.6 °F 50.8 °F 30.04 in West 4.9 mph 12 mph 19% 0.00 in W/m2
09:59 100.9 °F 50.3 °F 30.04 in West 4.1 mph 12 mph 18.5% 0.00 in W/m2
10:04 101.2 °F 50.9 °F 30.04 in West 3.7 mph 12 mph 18.7% 0.00 in W/m2
10:09 101.2 °F 49.9 °F 30.04 in NNW 4.1 mph 8.1 mph 18% 0.00 in W/m2
10:14 101.1 °F 49.8 °F 30.04 in North 3.6 mph 9.2 mph 18% 0.00 in W/m2
10:19 101.1 °F 49.9 °F 30.04 in NNW 3.2 mph 11 mph 18.1% 0.00 in W/m2
10:24 100.4 °F 54 °F 30.04 in NE 5.3 mph 14 mph 21.5% 0.00 in W/m2
10:29 99.6 °F 56.5 °F 30.04 in NE 5.7 mph 14 mph 24.1% 0.00 in W/m2
10:34 99.2 °F 57.2 °F 30.04 in NE 5.2 mph 12 mph 25% 0.00 in W/m2
10:39 99.2 °F 57.2 °F 30.04 in NE 4.9 mph 10.4 mph 25% 0.00 in W/m2
10:44 99.1 °F 56.7 °F 30.04 in NE 5 mph 10 mph 24.6% 0.00 in W/m2
10:49 99.5 °F 55.6 °F 30.05 in NE 3.7 mph 9.2 mph 23.4% 0.00 in W/m2
10:54 99.7 °F 54.9 °F 30.05 in NE 2.3 mph 9 mph 22.7% 0.00 in W/m2
10:59 100.1 °F 54.2 °F 30.05 in NE 3.2 mph 10 mph 21.8% 0.00 in W/m2
11:04 100.5 °F 53.5 °F 30.05 in NE 3.7 mph 11 mph 21% 0.00 in W/m2
11:09 100.7 °F 53.1 °F 30.05 in NNE 4.2 mph 13 mph 20.6% 0.00 in W/m2
11:14 100.7 °F 53.6 °F 30.05 in NE 3 mph 13 mph 21% 0.00 in W/m2
11:19 101 °F 53.6 °F 30.05 in NE 3.9 mph 8.1 mph 20.8% 0.00 in W/m2
11:24 101.2 °F 53.6 °F 30.05 in NE 3.7 mph 11 mph 20.7% 0.00 in W/m2
11:29 101.5 °F 53.6 °F 30.05 in NE 4.2 mph 12 mph 20.5% 0.00 in W/m2
11:34 101.7 °F 53.3 °F 30.05 in NE 4.5 mph 12 mph 20.2% 0.00 in W/m2
11:39 101.8 °F 53.2 °F 30.05 in NE 2.3 mph 10 mph 20% 0.00 in W/m2
11:44 102.4 °F 52.2 °F 30.05 in North 3.9 mph 10 mph 19% 0.00 in W/m2
11:49 102.8 °F 50.5 °F 30.05 in WNW 4.1 mph 10.4 mph 17.6% 0.00 in W/m2
11:54 102.7 °F 50.4 °F 30.05 in West 5.7 mph 12 mph 17.5% 0.00 in W/m2
11:59 103.2 °F 50.5 °F 30.05 in West 4.4 mph 12 mph 17.4% 0.00 in W/m2
12:04 103.7 °F 50.6 °F 30.05 in WNW 4.3 mph 10.4 mph 17.2% 0.00 in W/m2
12:09 103.8 °F 50.4 °F 30.05 in West 4.1 mph 10 mph 17% 0.00 in W/m2
12:14 103.8 °F 50.7 °F 30.05 in West 3.6 mph 10.4 mph 17.2% 0.00 in W/m2
12:19 104.4 °F 51.2 °F 30.05 in NW 3.4 mph 11.5 mph 17.2% 0.00 in W/m2
12:24 104.5 °F 51 °F 30.05 in NNE 6.5 mph 16.1 mph 17% 0.00 in W/m2
12:29 103.9 °F 50.5 °F 30.05 in North 5 mph 16 mph 17% 0.00 in W/m2
12:34 104.2 °F 51.7 °F 30.05 in NW 3.6 mph 12 mph 17.7% 0.00 in W/m2
12:39 104.3 °F 50.8 °F 30.05 in WNW 5 mph 14 mph 17% 0.00 in W/m2
12:44 104.3 °F 50.8 °F 30.05 in WNW 6 mph 15 mph 17% 0.00 in W/m2
12:49 104.6 °F 50.6 °F 30.04 in NW 6.2 mph 15 mph 16.7% 0.00 in W/m2
12:54 104.5 °F 49.7 °F 30.04 in WNW 6.9 mph 16.1 mph 16.2% 0.00 in W/m2
12:59 104.3 °F 50.7 °F 30.05 in WNW 6 mph 16 mph 16.9% 0.00 in W/m2
13:04 103.6 °F 50.2 °F 30.05 in WNW 8.3 mph 16.1 mph 17% 0.00 in W/m2
13:09 102.9 °F 49.7 °F 30.05 in NNW 6.5 mph 16 mph 17% 0.00 in W/m2
13:14 102.5 °F 50.4 °F 30.05 in West 4.3 mph 13 mph 17.7% 0.00 in W/m2
13:19 102.4 °F 50.6 °F 30.05 in WNW 5.2 mph 10 mph 17.9% 0.00 in W/m2
13:24 102.6 °F 50.9 °F 30.05 in West 2.9 mph 9.2 mph 17.9% 0.00 in W/m2
13:29 103.3 °F 50.2 °F 30.05 in NNW 5.1 mph 11.5 mph 17.1% 0.00 in W/m2
13:34 103.9 °F 50.5 °F 30.05 in West 7.3 mph 13 mph 17% 0.00 in W/m2
13:39 104 °F 49.8 °F 30.05 in West 5.7 mph 14 mph 16.5% 0.00 in W/m2
13:44 104.3 °F 48.8 °F 30.05 in West 7.1 mph 13 mph 15.8% 0.00 in W/m2
13:49 104.3 °F 48.8 °F 30.05 in West 6.8 mph 13 mph 15.8% 0.00 in W/m2
13:54 104.2 °F 49.1 °F 30.05 in West 9.5 mph 18 mph 16% 0.00 in W/m2
13:59 103.2 °F 49.5 °F 30.05 in WSW 10.8 mph 20 mph 16.7% 0.00 in W/m2
14:04 102.6 °F 49.5 °F 30.05 in WSW 10 mph 20 mph 17% 0.00 in W/m2
14:09 102.2 °F 50.5 °F 30.05 in WSW 8.8 mph 17 mph 17.9% 0.00 in W/m2
14:14 101.8 °F 50.8 °F 30.06 in WSW 9.9 mph 18.4 mph 18.3% 0.00 in W/m2
14:19 101.2 °F 51.3 °F 30.06 in West 9.3 mph 18 mph 19% 0.00 in W/m2
14:24 100.8 °F 51 °F 30.05 in WSW 9.2 mph 16 mph 19% 0.00 in W/m2
14:29 100.6 °F 50.8 °F 30.05 in WSW 7.9 mph 15 mph 19% 0.00 in W/m2
14:34 100.6 °F 51.1 °F 30.05 in WSW 6.5 mph 15 mph 19.2% 0.00 in W/m2
14:39 100.5 °F 51 °F 30.05 in WSW 8 mph 15 mph 19.2% 0.00 in W/m2
14:44 100.6 °F 51.4 °F 30.05 in WSW 5.9 mph 14 mph 19.5% 0.00 in W/m2
14:49 100.5 °F 52.2 °F 30.05 in WSW 5.4 mph 12 mph 20% 0.00 in W/m2
14:54 100.3 °F 52 °F 30.05 in WSW 5.5 mph 10.4 mph 20% 0.00 in W/m2
14:59 100.2 °F 51.9 °F 30.05 in WSW 6 mph 10.4 mph 20% 0.00 in W/m2
15:04 100.2 °F 51.9 °F 30.05 in WSW 4.7 mph 10 mph 20% 0.00 in W/m2
15:09 100.1 °F 51.8 °F 30.05 in WSW 4.1 mph 9 mph 20% 0.00 in W/m2
15:14 100 °F 51.7 °F 30.05 in WSW 4.7 mph 9.2 mph 20% 0.00 in W/m2
15:19 99.9 °F 51.7 °F 30.05 in WSW 3.5 mph 9 mph 20% 0.00 in W/m2
15:24 100.2 °F 51.9 °F 30.05 in West 3 mph 8 mph 20% 0.00 in W/m2
15:29 100.6 °F 51.6 °F 30.05 in WSW 3.7 mph 8.1 mph 19.6% 0.00 in W/m2
15:34 100.9 °F 51.1 °F 30.04 in West 2.9 mph 8.1 mph 19% 0.00 in W/m2
15:39 101 °F 51.2 °F 30.05 in WSW 3.1 mph 8 mph 19% 0.00 in W/m2
15:44 101 °F 51.2 °F 30.05 in West 4 mph 10.4 mph 19% 0.00 in W/m2
15:49 100.9 °F 50.7 °F 30.05 in West 3 mph 10 mph 18.7% 0.00 in W/m2
15:54 100.9 °F 52.1 °F 30.04 in WNW 3.7 mph 8.1 mph 19.7% 0.00 in W/m2
15:59 100 °F 55.2 °F 30.05 in NNE 2.7 mph 8 mph 22.7% 0.00 in W/m2
16:00 99.5 °F 56 °F 30.06 in WSW 1.9 mph 6 mph 23.7% 0.00 in W/m2
17:59 96.8 °F 55.2 °F 30.05 in Calm   13 mph 25% 0.00 in W/m2
18:04 96.7 °F 55.8 °F 30.05 in NE 0.4 mph 13 mph 25.6% 0.00 in W/m2
18:09 96.8 °F 55.8 °F 30.05 in WSW 0.8 mph 2.3 mph 25.6% 0.00 in W/m2
18:14 96.9 °F 56.8 °F 30.04 in SE 0.8 mph 2.3 mph 26.4% 0.00 in W/m2
18:19 97.2 °F 55.1 °F 30.04 in SSE 1.9 mph 6 mph 24.6% 0.00 in W/m2
18:24 97.3 °F 55.4 °F 30.03 in SE 1.8 mph 6 mph 24.8% 0.00 in W/m2
18:29 97.5 °F 55.6 °F 30.04 in WSW 1.6 mph 6 mph 24.9% 0.00 in W/m2
18:34 97.7 °F 54.6 °F 30.04 in WNW 0.8 mph 4 mph 23.8% 0.00 in W/m2
18:39 98.1 °F 51.5 °F 30.03 in WSW 3.2 mph 10.4 mph 21.1% 0.00 in W/m2
18:44 98 °F 49 °F 30.03 in West 4 mph 10 mph 19.2% 0.00 in W/m2
18:49 98 °F 48.7 °F 30.03 in NNE 2.5 mph 8.1 mph 19% 0.00 in W/m2
18:54 98 °F 48.7 °F 30.03 in NNE 1.8 mph 8 mph 19% 0.00 in W/m2
18:59 98 °F 48.7 °F 30.03 in NW 0.8 mph 3.5 mph 19% 0.00 in W/m2
19:04 97.9 °F 49 °F 30.04 in NW 1.1 mph 4 mph 19.3% 0.00 in W/m2
19:09 97.4 °F 53.7 °F 30.04 in NE 3.6 mph 9 mph 23.3% 0.00 in W/m2
19:14 96.5 °F 54.9 °F 30.04 in NE 2.7 mph 9 mph 25% 0.00 in W/m2
19:19 96 °F 55.1 °F 30.04 in NE 1.2 mph 5 mph 25.5% 0.00 in W/m2
19:24 95.9 °F 55.5 °F 30.04 in NE 1.4 mph 5 mph 26% 0.00 in W/m2
19:29 95.6 °F 55.3 °F 30.04 in NE 2.8 mph 5 mph 26% 0.00 in W/m2
19:34 95.4 °F 55.1 °F 30.04 in NE 2 mph 4 mph 26% 0.00 in W/m2
19:39 95.2 °F 54.9 °F 30.04 in NE 2.7 mph 5 mph 26% 0.00 in W/m2
19:44 95.1 °F 55.2 °F 30.04 in NE 0.6 mph 5 mph 26.4% 0.00 in W/m2
19:49 95 °F 55.7 °F 30.04 in NE 1.3 mph 3.5 mph 26.9% 0.00 in W/m2
19:54 94.8 °F 55.4 °F 30.04 in West 0.5 mph 3 mph 26.8% 0.00 in W/m2
19:59 94.3 °F 56.9 °F 30.05 in WSW 1 mph 3.5 mph 28.7% 0.00 in W/m2
20:04 93.3 °F 57.3 °F 30.05 in West 1.1 mph 3 mph 30% 0.00 in W/m2
20:09 92.9 °F 56.9 °F 30.05 in West 0.5 mph 2.3 mph 30% 0.00 in W/m2
20:14 92.6 °F 56.7 °F 30.05 in West 0.1 mph 2 mph 30% 0.00 in W/m2
20:19 92.4 °F 56.8 °F 30.05 in Calm   1 mph 30.4% 0.00 in W/m2
20:24 91.9 °F 56.9 °F 30.05 in Calm     31% 0.00 in W/m2
20:29 91.2 °F 57 °F 30.05 in Calm     31.8% 0.00 in W/m2
20:34 90.6 °F 56.7 °F 30.05 in West 0.2 mph 1.2 mph 32% 0.00 in W/m2
20:39 90.5 °F 56.6 °F 30.06 in West 1.8 mph 3.5 mph 32% 0.00 in W/m2
20:44 90.6 °F 56.6 °F 30.06 in West 1.5 mph 3.5 mph 31.8% 0.00 in W/m2
20:49 90.4 °F 56.5 °F 30.06 in West 1.8 mph 4 mph 32% 0.00 in W/m2
20:54 90.1 °F 56.3 °F 30.06 in West 1.1 mph 4 mph 32% 0.00 in W/m2
20:59 89.5 °F 56.3 °F 30.06 in WSW 0.7 mph 3 mph 32.6% 0.00 in W/m2
21:04 89 °F 56.2 °F 30.06 in WSW 0.6 mph 3 mph 33% 0.00 in W/m2
21:09 88.5 °F 55.5 °F 30.06 in WSW 1.5 mph 3.5 mph 32.7% 0.00 in W/m2
21:14 88.2 °F 54.6 °F 30.06 in West 1.8 mph 4 mph 32% 0.00 in W/m2
21:19 88.1 °F 54.5 °F 30.06 in West 1.6 mph 4 mph 32% 0.00 in W/m2
21:24 88 °F 54.4 °F 30.06 in West 1.5 mph 4 mph 32% 0.00 in W/m2
21:29 88 °F 54.4 °F 30.06 in West 1.5 mph 4 mph 32% 0.00 in W/m2
21:34 88.1 °F 54.5 °F 30.07 in West 2.1 mph 4 mph 32% 0.00 in W/m2
21:39 88 °F 54.4 °F 30.07 in West 1.9 mph 4 mph 32% 0.00 in W/m2
21:44 87.9 °F 54.4 °F 30.07 in WSW 1.7 mph 4 mph 32% 0.00 in W/m2
21:49 87.6 °F 54.5 °F 30.06 in WSW 1.4 mph 3.5 mph 32.5% 0.00 in W/m2
21:54 87.5 °F 54.9 °F 30.06 in WSW 0.7 mph 3 mph 33% 0.00 in W/m2
21:59 87.3 °F 54.7 °F 30.06 in SW 0.8 mph 2.3 mph 33% 0.00 in W/m2
22:04 87 °F 54.6 °F 30.06 in WSW 0.5 mph 3.5 mph 33.3% 0.00 in W/m2
22:09 86.6 °F 54.9 °F 30.05 in Calm   3 mph 34% 0.00 in W/m2
22:14 86.2 °F 54.7 °F 30.05 in Calm     34.2% 0.00 in W/m2
22:19 86.1 °F 55.2 °F 30.05 in SW 0.2 mph 1.2 mph 35% 0.00 in W/m2
22:24 86 °F 55.2 °F 30.05 in SW 0.8 mph 2.3 mph 35% 0.00 in W/m2
22:29 85.7 °F 55.4 °F 30.05 in SSW 0.3 mph 2.3 mph 35.6% 0.00 in W/m2
22:34 85.4 °F 55.4 °F 30.05 in SSE 0.4 mph 2.3 mph 36% 0.00 in W/m2
22:39 85.1 °F 55.4 °F 30.06 in SSW 0.6 mph 2 mph 36.4% 0.00 in W/m2
22:44 84.7 °F 55.5 °F 30.06 in SSW 1.2 mph 2.3 mph 37% 0.00 in W/m2
22:49 84.4 °F 55.5 °F 30.06 in South 0.4 mph 2.3 mph 37.3% 0.00 in W/m2
22:54 84.1 °F 55.7 °F 30.05 in Calm   2 mph 38% 0.00 in W/m2
22:59 83.7 °F 55.4 °F 30.05 in South 0.1 mph 1.2 mph 38% 0.00 in W/m2
23:04 83.4 °F 55.7 °F 30.05 in SSW 0.2 mph 2 mph 38.8% 0.00 in W/m2
23:09 83.1 °F 55.8 °F 30.05 in SW 0.7 mph 2.3 mph 39.2% 0.00 in W/m2
23:14 82.6 °F 55.8 °F 30.05 in SW 1 mph 2.3 mph 39.9% 0.00 in W/m2
23:19 82.3 °F 55.7 °F 30.05 in SW 0.2 mph 2 mph 40.3% 0.00 in W/m2
23:24 82.3 °F 56 °F 30.04 in WSW 1 mph 4 mph 40.5% 0.00 in W/m2
23:29 82.4 °F 55.7 °F 30.04 in WSW 2.2 mph 4 mph 40% 0.00 in W/m2
23:34 81.9 °F 55.8 °F 30.04 in WSW 2.4 mph 3.5 mph 40.8% 0.00 in W/m2
23:39 81.4 °F 55.9 °F 30.04 in WSW 1.9 mph 3.5 mph 41.6% 0.00 in W/m2
23:44 81.3 °F 55.8 °F 30.04 in WSW 1.9 mph 3.5 mph 41.6% 0.00 in W/m2
23:49 81.8 °F 55.8 °F 30.04 in WSW 1.5 mph 3.5 mph 41% 0.00 in W/m2
23:54 82.1 °F 55.7 °F 30.04 in WSW 1.3 mph 3.5 mph 40.5% 0.00 in W/m2
23:59 83 °F 55.8 °F 30.04 in WSW 1.6 mph 3.5 mph 39.4% 0.00 in W/m2
Acquaviva delle Fonti, BA, Italia
Complimenti a Weather Underground - 3.25 mb